Airfield :
LOGIN :

Register | Disclaimer

   EN    FR    IT 

 










Legend :    VFR   Marginal VFR   IFR   Intensive IFR   Very Intensive IFR
Visi :
Ceiling :
>= 8 km
>= 3000ft
5 to 8 km
1000 to 3000 ft
1500m to 5 km
500 to 1000 ft
800 to 1500m
200 to 500 ft
< 800m
< 200 ft
Symbols :   Thunderstorms  Fog  Heavy snow  Heavy precipitations  Wind > 20 kt
SIGMETs :     Misc.  Thunderstorms  Icing  Turbulence  Mountain Waves  Volcanic Ashes






- Airport Elevation : 124 ft
- IATA code : RNS


LFRN - Rennes

CURRENT METAR :
  • 172030Z AUTO 17010KT 9999 SCT024/// SCT086/// BKN120/// ///CB 13/12 Q1008 TEMPO 22015G25KT 4000 SHRA

EXPIRED METARs :
  • 172000Z AUTO 17009KT 9999 FEW033/// OVC100/// ///TCU 13/11 Q1008 TEMPO 22015G25KT 4000 SHRA
  • 171930Z AUTO 18010KT 9999 FEW023 SCT076 BKN100 13/12 Q1008 TEMPO 22015G25KT 4000 SHRA BKN015TCU
  • 171900Z AUTO 17009KT 9999 FEW013 BKN064 OVC200 13/11 Q1008 TEMPO 22015G25KT 4000 SHRA BKN015TCU
  • 171830Z AUTO 18010KT CAVOK 13/11 Q1008 TEMPO 22015G25KT 4000 SHRA BKN015TCU
  • 171800Z AUTO 20008KT 170V230 CAVOK 14/11 Q1008 TEMPO 22015G25KT 4000 SHRA BKN015TCU

TAF TAF LFRN
Valid from the 17 at 18:00 until the 18 at 18:00 UTC


171700Z 1718/1818 20010KT 9999 SCT030
TEMPO 1718/1805 22015G25KT 4000 SHRA BKN015TCU
PROB40
TEMPO 1800/1804 25020G40KT 3000 TSRA BKN015CB
PROB30
TEMPO 1805/1811 5000 SHRA
TEMPO 1811/1818 22015G25KT 4000 SHRA BKN030TCU
ATIS : +33 2 99 67 72 50



MET'MAP, your aeronautical weather chart ! - Copyright ORBIFLY December 2007 - Disclaimer

ORBIFLY MET'MAP TEAM :

Programming & Development : Alexandra Zaïnal
Concept & Development : Baudouin d'Aumeries
Co-Development & Prog : Marc-Olivier Méhu
Technical & hardware support : Manuel Goepfert

Contact : metmap@orbifly.com




SOURCES & CREDITS :

   NOAA